createdAt,value
2022-08-30T00:01:13.626Z,102084.84
2022-08-30T00:03:43.121Z,102078.63
2022-08-30T00:06:10.448Z,102077.81
2022-08-30T00:08:37.629Z,102068.22
2022-08-30T00:11:13.729Z,102073.56
2022-08-30T00:13:42.054Z,102056.09
2022-08-30T00:16:09.557Z,102053.00
2022-08-30T00:18:36.739Z,102054.97
2022-08-30T00:21:12.723Z,102050.47
2022-08-30T00:23:40.077Z,102049.63
2022-08-30T00:26:07.547Z,102056.94
2022-08-30T00:28:34.907Z,102048.78
2022-08-30T00:31:15.988Z,102045.44
2022-08-30T00:33:43.046Z,102049.09
2022-08-30T00:36:12.145Z,102040.38
2022-08-30T00:38:39.125Z,102044.94
2022-08-30T00:41:12.824Z,102044.34
2022-08-30T00:43:39.716Z,102046.34
2022-08-30T00:46:08.765Z,102051.66
2022-08-30T00:48:37.868Z,102055.31
2022-08-30T00:51:13.586Z,102052.72
2022-08-30T00:53:42.450Z,102057.84
2022-08-30T00:56:10.401Z,102056.16
2022-08-30T00:58:40.343Z,102058.13
2022-08-30T01:01:11.860Z,102055.34
2022-08-30T01:03:39.849Z,102058.47
2022-08-30T01:06:07.768Z,102055.94
2022-08-30T01:08:35.484Z,102060.97
2022-08-30T01:11:08.899Z,102061.81
2022-08-30T01:13:36.141Z,102064.34
2022-08-30T01:16:03.239Z,102054.50
2022-08-30T01:18:31.697Z,102056.78
2022-08-30T01:21:10.626Z,102054.81
2022-08-30T01:23:40.091Z,102050.31
2022-08-30T01:26:07.491Z,102055.09
2022-08-30T01:28:35.057Z,102063.84
2022-08-30T01:31:07.841Z,102058.81
2022-08-30T01:33:37.700Z,102056.00
2022-08-30T01:36:06.852Z,102052.03
2022-08-30T01:38:35.973Z,102056.56
2022-08-30T01:41:15.651Z,102051.84
2022-08-30T01:43:42.750Z,102044.97
2022-08-30T01:46:11.346Z,102050.63
2022-08-30T01:48:39.196Z,102054.31
2022-08-30T01:51:10.682Z,102063.34
2022-08-30T01:53:38.073Z,102065.59
2022-08-30T01:56:05.892Z,102062.25
2022-08-30T01:58:32.769Z,102068.41
2022-08-30T02:01:09.006Z,102069.59
2022-08-30T02:03:36.804Z,102072.41
2022-08-30T02:06:04.679Z,102066.16
2022-08-30T02:08:31.923Z,102066.44
2022-08-30T02:11:09.591Z,102069.59
2022-08-30T02:13:40.303Z,102069.25
2022-08-30T02:16:11.630Z,102064.47
2022-08-30T02:18:39.578Z,102066.44
2022-08-30T02:21:12.796Z,102064.19
2022-08-30T02:23:39.731Z,102063.34
2022-08-30T02:26:06.698Z,102051.81
2022-08-30T02:28:33.578Z,102060.28
2022-08-30T02:31:12.235Z,102059.72
2022-08-30T02:33:40.473Z,102057.22
2022-08-30T02:36:08.081Z,102065.69
2022-08-30T02:38:34.935Z,102064.50
2022-08-30T02:41:11.533Z,102053.56
2022-08-30T02:43:38.343Z,102061.16
2022-08-30T02:46:08.121Z,102060.84
2022-08-30T02:48:35.026Z,102046.53
2022-08-30T02:51:11.810Z,102052.47
2022-08-30T02:53:39.695Z,102043.19
2022-08-30T02:56:06.932Z,102051.03
2022-08-30T02:58:33.867Z,102051.31
2022-08-30T03:01:10.355Z,102054.44
2022-08-30T03:03:37.525Z,102050.75
2022-08-30T03:06:04.414Z,102059.75
2022-08-30T03:08:31.923Z,102049.66
2022-08-30T03:11:09.733Z,102047.41
2022-08-30T03:13:36.681Z,102041.25
2022-08-30T03:16:03.707Z,102040.09
2022-08-30T03:18:30.542Z,102046.88
2022-08-30T03:21:06.363Z,102024.59
2022-08-30T03:23:33.334Z,102036.47
2022-08-30T03:26:00.194Z,102026.34
2022-08-30T03:28:26.939Z,102028.91
2022-08-30T03:30:54.897Z,102026.63
2022-08-30T03:33:21.975Z,102034.53
2022-08-30T03:35:49.886Z,102033.09
2022-08-30T03:38:16.783Z,102033.69
2022-08-30T03:40:43.598Z,102024.63
2022-08-30T03:43:10.585Z,102021.81
2022-08-30T03:45:37.445Z,102028.59
2022-08-30T03:48:04.434Z,102017.03
2022-08-30T03:50:31.228Z,102021.81
2022-08-30T03:52:58.764Z,102012.78
2022-08-30T03:55:25.554Z,102011.16
2022-08-30T03:57:52.301Z,102013.66
2022-08-30T04:00:20.137Z,102011.72
2022-08-30T04:02:46.887Z,102008.91
2022-08-30T04:05:13.983Z,102006.91
2022-08-30T04:07:42.413Z,102008.66
2022-08-30T04:10:09.716Z,102000.19
2022-08-30T04:12:38.599Z,101996.81
2022-08-30T04:15:06.446Z,101994.31
2022-08-30T04:17:33.188Z,101999.63
2022-08-30T04:19:59.905Z,102006.44
2022-08-30T04:22:26.813Z,102000.50
2022-08-30T04:24:53.656Z,102003.03
2022-08-30T04:27:20.725Z,102005.56
2022-08-30T04:29:48.037Z,102001.91
2022-08-30T04:32:14.941Z,102004.16
2022-08-30T04:34:41.718Z,102000.81
2022-08-30T04:37:10.055Z,102000.81
2022-08-30T04:39:37.601Z,102001.34
2022-08-30T04:42:04.586Z,102002.19
2022-08-30T04:44:31.897Z,102009.78
2022-08-30T04:46:59.350Z,101999.13
2022-08-30T04:49:26.263Z,102005.88
2022-08-30T04:51:53.014Z,102001.38
2022-08-30T04:54:19.833Z,101992.94
2022-08-30T04:56:47.732Z,102001.66
2022-08-30T04:59:14.437Z,101999.13
2022-08-30T05:01:45.435Z,101997.75
2022-08-30T05:04:13.171Z,102007.34
2022-08-30T05:06:42.168Z,102006.22
2022-08-30T05:09:08.961Z,102008.47
2022-08-30T05:11:35.708Z,102008.47
2022-08-30T05:14:02.462Z,102018.59
2022-08-30T05:16:29.231Z,102017.75
2022-08-30T05:18:56.021Z,102016.34
2022-08-30T05:21:25.729Z,102016.66
2022-08-30T05:23:56.386Z,102023.97
2022-08-30T05:26:25.054Z,102020.56
2022-08-30T05:28:52.420Z,102021.16
2022-08-30T05:31:20.714Z,102011.31
2022-08-30T05:33:48.014Z,102012.41
2022-08-30T05:36:15.960Z,102006.53
2022-08-30T05:38:43.290Z,102011.88
2022-08-30T05:41:11.500Z,102010.47
2022-08-30T05:43:38.879Z,102009.06
2022-08-30T05:46:12.815Z,102014.69
2022-08-30T05:48:40.174Z,102013.25
2022-08-30T05:51:14.434Z,102026.78
2022-08-30T05:53:41.466Z,102026.19
2022-08-30T05:56:09.815Z,102026.22
2022-08-30T05:58:36.561Z,102022.28
2022-08-30T06:01:03.939Z,102024.25
2022-08-30T06:03:32.997Z,102022.28
2022-08-30T06:06:00.203Z,102019.16
2022-08-30T06:08:26.889Z,102030.72
2022-08-30T06:10:53.553Z,102014.13
2022-08-30T06:13:20.370Z,102020.91
2022-08-30T06:15:47.537Z,102022.84
2022-08-30T06:18:14.525Z,102022.84
2022-08-30T06:20:42.409Z,102021.47
2022-08-30T06:23:09.860Z,102024.53
2022-08-30T06:25:41.310Z,102021.72
2022-08-30T06:28:09.109Z,102012.72
2022-08-30T06:30:36.090Z,102021.69
2022-08-30T06:33:02.818Z,102021.16
2022-08-30T06:35:32.638Z,102011.59
2022-08-30T06:38:02.241Z,102014.41
2022-08-30T06:40:28.953Z,102018.34
2022-08-30T06:42:58.316Z,102021.16
2022-08-30T06:45:28.366Z,102024.25
2022-08-30T06:50:26.458Z,102022.81
2022-08-30T06:52:53.495Z,102017.75
2022-08-30T06:55:24.723Z,102030.69
2022-08-30T06:57:51.614Z,102033.50
2022-08-30T07:00:20.268Z,102039.13
2022-08-30T07:02:47.376Z,102028.72
2022-08-30T07:05:18.658Z,102031.22
2022-08-30T07:07:46.058Z,102027.25
2022-08-30T07:10:14.743Z,102029.22
2022-08-30T07:12:43.065Z,102028.38
2022-08-30T07:15:10.868Z,102027.53
2022-08-30T07:17:56.417Z,102034.56
2022-08-30T07:20:23.303Z,102035.44
2022-08-30T07:22:52.161Z,102039.34
2022-08-30T07:25:19.988Z,102037.94
2022-08-30T07:27:56.893Z,102035.44
2022-08-30T07:30:23.951Z,102040.22
2022-08-30T07:32:50.712Z,102038.53
2022-08-30T07:35:19.070Z,102044.16
2022-08-30T07:37:48.346Z,102042.44
2022-08-30T07:40:18.094Z,102035.69
2022-08-30T07:42:44.790Z,102046.38
2022-08-30T07:45:12.209Z,102049.53
2022-08-30T07:47:41.461Z,102041.59
2022-08-30T07:50:09.880Z,102045.50
2022-08-30T07:52:42.821Z,102050.03
2022-08-30T07:55:10.249Z,102054.84
2022-08-30T07:57:37.027Z,102053.19
2022-08-30T08:00:05.259Z,102060.78
2022-08-30T08:02:34.810Z,102058.75
2022-08-30T08:05:07.724Z,102055.41
2022-08-30T08:07:35.274Z,102052.59
2022-08-30T08:10:02.494Z,102054.56
2022-08-30T08:12:33.651Z,102051.75
2022-08-30T08:15:06.757Z,102057.09
2022-08-30T08:17:39.607Z,102065.78
2022-08-30T08:20:06.514Z,102066.06
2022-08-30T08:22:35.798Z,102067.19
2022-08-30T08:25:08.078Z,102069.75
2022-08-30T08:27:37.678Z,102063.25
2022-08-30T08:30:06.279Z,102061.56
2022-08-30T08:32:34.175Z,102061.84
2022-08-30T08:35:00.907Z,102066.88
2022-08-30T08:37:28.591Z,102063.25
2022-08-30T08:39:56.854Z,102066.88
2022-08-30T08:42:29.725Z,102058.72
2022-08-30T08:45:15.231Z,102068.56
2022-08-30T08:47:50.656Z,102069.09
2022-08-30T08:50:21.557Z,102064.06
2022-08-30T08:53:20.495Z,102062.94
2022-08-30T08:55:54.772Z,102067.13
2022-08-30T08:58:28.057Z,102062.09
2022-08-30T09:00:56.956Z,102064.91
2022-08-30T09:03:26.527Z,102071.06
2022-08-30T09:05:56.387Z,102062.94
2022-08-30T09:08:30.477Z,102065.44
2022-08-30T09:11:02.204Z,102071.63
2022-08-30T09:13:28.954Z,102067.69
2022-08-30T09:15:57.862Z,102069.06
2022-08-30T09:18:54.463Z,102064.56
2022-08-30T09:21:24.880Z,102066.56
2022-08-30T09:23:57.312Z,102067.66
2022-08-30T09:26:32.175Z,102065.34
2022-08-30T09:29:05.947Z,102065.34
2022-08-30T09:31:34.376Z,102075.50
2022-08-30T09:34:09.730Z,102070.72
2022-08-30T09:36:55.922Z,102072.09
2022-08-30T09:39:38.931Z,102075.50
2022-08-30T09:42:20.699Z,102073.50
2022-08-30T09:44:47.454Z,102071.50
2022-08-30T09:47:28.490Z,102073.72
2022-08-30T09:50:07.844Z,102068.69
2022-08-30T09:52:54.624Z,102076.56
2022-08-30T09:55:41.460Z,102063.03
2022-08-30T09:58:18.323Z,102079.66
2022-08-30T10:01:03.395Z,102073.97
2022-08-30T10:03:40.287Z,102071.69
2022-08-30T10:06:18.260Z,102072.53
2022-08-30T10:08:51.462Z,102062.72
2022-08-30T10:11:18.824Z,102063.03
2022-08-30T10:14:06.108Z,102063.56
2022-08-30T10:17:12.454Z,102070.31
2022-08-30T10:19:49.426Z,102058.78
2022-08-30T10:22:16.088Z,102062.72
2022-08-30T10:24:48.313Z,102066.09
2022-08-30T10:27:18.651Z,102070.03
2022-08-30T10:29:51.907Z,102062.44
2022-08-30T10:32:24.031Z,102059.56
2022-08-30T10:35:02.222Z,102064.06
2022-08-30T10:37:31.400Z,102070.25
2022-08-30T10:40:23.110Z,102069.63
2022-08-30T10:42:54.126Z,102060.91
2022-08-30T10:45:31.730Z,102049.63
2022-08-30T10:48:10.835Z,102058.94
2022-08-30T10:50:42.273Z,102063.44
2022-08-30T10:53:17.088Z,102061.75
2022-08-30T10:55:54.375Z,102053.00
2022-08-30T10:58:24.592Z,102052.16
2022-08-30T11:01:12.576Z,102055.81
2022-08-30T11:03:56.886Z,102045.91
2022-08-30T11:09:45.349Z,102052.34
2022-08-30T11:12:33.276Z,102048.06
2022-08-30T11:15:01.516Z,102046.66
2022-08-30T11:20:00.525Z,102044.91
2022-08-30T11:25:40.512Z,102047.97
2022-08-30T11:28:09.200Z,102051.03
2022-08-30T11:30:39.028Z,102054.41
2022-08-30T11:33:25.691Z,102051.88
2022-08-30T11:35:54.684Z,102037.25
2022-08-30T11:38:27.879Z,102048.53
2022-08-30T11:40:55.891Z,102046.53
2022-08-30T11:43:41.003Z,102048.53
2022-08-30T11:46:19.450Z,102049.34
2022-08-30T11:48:56.284Z,102047.09
2022-08-30T11:51:58.243Z,102044.56
2022-08-30T11:54:40.597Z,102049.06
2022-08-30T11:57:18.481Z,102043.13
2022-08-30T11:59:50.282Z,102029.31
2022-08-30T12:02:35.910Z,102035.53
2022-08-30T12:05:02.671Z,102035.53
2022-08-30T12:07:53.574Z,102031.00
2022-08-30T12:10:28.194Z,102030.41
2022-08-30T12:12:56.875Z,102030.72
2022-08-30T12:15:43.739Z,102033.22
2022-08-30T12:18:29.766Z,102040.00
2022-08-30T12:20:59.224Z,102021.66
2022-08-30T12:23:29.528Z,102028.16
2022-08-30T12:26:30.504Z,102028.16
2022-08-30T12:29:12.747Z,102021.06
2022-08-30T12:32:03.445Z,102030.97
2022-08-30T12:34:34.539Z,102030.97
2022-08-30T12:37:10.789Z,102026.47
2022-08-30T12:39:42.516Z,102034.31
2022-08-30T12:42:17.571Z,102033.16
2022-08-30T12:44:50.108Z,102029.75
2022-08-30T12:47:25.088Z,102031.75
2022-08-30T12:49:55.640Z,102034.81
2022-08-30T12:52:23.501Z,102031.38
2022-08-30T12:54:51.231Z,102030.75
2022-08-30T12:57:36.565Z,102021.13
2022-08-30T13:00:06.642Z,102030.13
2022-08-30T13:02:49.072Z,102026.13
2022-08-30T13:05:45.541Z,102025.00
2022-08-30T13:08:22.369Z,102032.88
2022-08-30T13:10:52.297Z,102034.78
2022-08-30T13:13:31.965Z,102030.47
2022-08-30T13:16:07.333Z,102027.66
2022-08-30T13:18:39.614Z,102031.28
2022-08-30T13:21:25.457Z,102025.31
2022-08-30T13:23:56.172Z,102029.75
2022-08-30T13:26:23.362Z,102030.88
2022-08-30T13:28:55.435Z,102025.31
2022-08-30T13:31:22.813Z,102029.03
2022-08-30T13:33:57.408Z,102016.34
2022-08-30T13:36:33.994Z,102013.84
2022-08-30T13:39:01.611Z,102024.28
2022-08-30T13:41:30.171Z,102025.38
2022-08-30T13:44:11.741Z,102017.75
2022-08-30T13:46:53.412Z,102020.31
2022-08-30T13:49:47.103Z,102024.81
2022-08-30T13:52:21.294Z,102019.75
2022-08-30T13:54:52.564Z,102018.41
2022-08-30T14:00:12.266Z,102019.25
2022-08-30T14:02:45.484Z,102014.13
2022-08-30T14:05:47.193Z,102006.75
2022-08-30T14:08:04.070Z,102010.72
2022-08-30T14:10:32.191Z,102011.28
2022-08-30T14:13:07.857Z,102009.88
2022-08-30T14:15:41.927Z,102013.31
2022-08-30T14:18:09.710Z,102016.13
2022-08-30T14:20:38.811Z,102004.28
2022-08-30T14:23:07.661Z,102011.91
2022-08-30T14:25:37.112Z,102009.09
2022-08-30T14:28:06.426Z,102006.28
2022-08-30T14:30:33.487Z,102012.22
2022-08-30T14:33:04.234Z,102011.41
2022-08-30T14:35:31.222Z,102013.38
2022-08-30T14:37:58.984Z,102004.91
2022-08-30T14:40:26.995Z,102000.13
2022-08-30T14:42:56.402Z,101999.28
2022-08-30T14:45:26.811Z,102006.03
2022-08-30T14:47:53.589Z,101999.56
2022-08-30T14:50:21.068Z,101993.09
2022-08-30T14:52:50.522Z,101993.94
2022-08-30T14:55:18.587Z,101993.94
2022-08-30T14:57:47.681Z,101990.25
2022-08-30T15:00:16.235Z,101991.09
2022-08-30T15:02:44.091Z,101991.94
2022-08-30T15:05:12.641Z,102001.25
2022-08-30T15:07:41.613Z,101995.06
2022-08-30T15:10:10.086Z,101995.91
2022-08-30T15:12:43.258Z,101999.56
2022-08-30T15:15:11.735Z,101995.06
2022-08-30T15:17:44.161Z,101989.41
2022-08-30T15:20:19.150Z,101989.13
2022-08-30T15:22:46.135Z,101989.97
2022-08-30T15:25:13.331Z,101981.81
2022-08-30T15:27:40.472Z,101982.66
2022-08-30T15:30:11.096Z,101978.69
2022-08-30T15:32:38.200Z,101979.81
2022-08-30T15:35:05.571Z,101971.06
2022-08-30T15:37:34.550Z,101969.91
2022-08-30T15:40:07.125Z,101958.94
2022-08-30T15:42:37.045Z,101967.09
2022-08-30T15:45:04.434Z,101961.16
2022-08-30T15:47:33.300Z,101963.97
2022-08-30T15:50:02.226Z,101958.34
2022-08-30T15:52:30.556Z,101958.34
2022-08-30T15:54:57.676Z,101953.53
2022-08-30T15:57:29.764Z,101958.03
2022-08-30T15:59:56.536Z,101949.56
2022-08-30T16:02:27.717Z,101957.13
2022-08-30T16:04:55.545Z,101945.56
2022-08-30T16:07:23.698Z,101941.88
2022-08-30T16:09:52.977Z,101945.84
2022-08-30T16:12:23.840Z,101947.81
2022-08-30T16:14:50.921Z,101943.03
2022-08-30T16:17:21.623Z,101945.84
2022-08-30T16:19:58.600Z,101943.56
2022-08-30T16:22:28.060Z,101945.47
2022-08-30T16:24:54.685Z,101946.25
2022-08-30T16:27:22.293Z,101937.28
2022-08-30T16:29:50.043Z,101939.84
2022-08-30T16:32:17.735Z,101935.88
2022-08-30T16:34:46.244Z,101941.81
2022-08-30T16:37:12.987Z,101932.84
2022-08-30T16:39:41.232Z,101938.47
2022-08-30T16:42:14.912Z,101946.94
2022-08-30T16:44:48.325Z,101935.94
2022-08-30T16:47:16.889Z,101936.78
2022-08-30T16:49:44.167Z,101934.25
2022-08-30T16:52:11.651Z,101932.28
2022-08-30T16:54:39.304Z,101942.72
2022-08-30T16:57:06.654Z,101936.25
2022-08-30T16:59:33.530Z,101937.09
2022-08-30T17:02:01.009Z,101941.03
2022-08-30T17:04:28.844Z,101931.75
2022-08-30T17:06:56.084Z,101937.38
2022-08-30T17:09:25.941Z,101935.41
2022-08-30T17:11:53.195Z,101946.25
2022-08-30T17:14:29.063Z,101935.50
2022-08-30T17:17:00.483Z,101941.16
2022-08-30T17:19:30.491Z,101934.75
2022-08-30T17:21:59.217Z,101930.53
2022-08-30T17:24:26.275Z,101941.00
2022-08-30T17:26:54.612Z,101943.28
2022-08-30T17:29:22.359Z,101953.16
2022-08-30T17:31:51.258Z,101953.16
2022-08-30T17:34:24.866Z,101964.75
2022-08-30T17:36:55.077Z,101953.75
2022-08-30T17:39:23.697Z,101965.38
2022-08-30T17:41:51.628Z,101961.69
2022-08-30T17:44:25.813Z,101962.84
2022-08-30T17:46:56.537Z,101966.50
2022-08-30T17:49:23.766Z,101961.16
2022-08-30T17:51:56.355Z,101975.25
2022-08-30T17:54:28.973Z,101970.75
2022-08-30T17:57:01.161Z,101973.56
2022-08-30T17:59:31.574Z,101969.91
2022-08-30T18:02:00.012Z,101976.38
2022-08-30T18:04:26.935Z,101972.72
2022-08-30T18:06:54.771Z,101969.09
2022-08-30T18:09:31.862Z,101973.91
2022-08-30T18:12:02.141Z,101977.00
2022-08-30T18:14:28.937Z,101989.97
2022-08-30T18:16:55.638Z,101989.97
2022-08-30T18:19:30.126Z,101991.94
2022-08-30T18:21:59.231Z,101997.59
2022-08-30T18:24:37.779Z,102004.91
2022-08-30T18:27:05.108Z,102004.38
2022-08-30T18:29:32.045Z,102011.69
2022-08-30T18:32:12.140Z,102015.66
2022-08-30T18:34:43.148Z,102028.63
2022-08-30T18:37:13.277Z,102027.78
2022-08-30T18:39:41.194Z,102028.91
2022-08-30T18:42:08.128Z,102032.56
2022-08-30T18:44:40.220Z,102026.09
2022-08-30T18:47:11.187Z,102035.38
2022-08-30T18:49:38.954Z,102043.00
2022-08-30T18:52:07.495Z,102049.50
2022-08-30T18:54:37.933Z,102045.81
2022-08-30T18:57:14.443Z,102047.00
2022-08-30T18:59:42.140Z,102048.97
2022-08-30T19:02:18.202Z,102047.78
2022-08-30T19:07:37.519Z,102050.94
2022-08-30T19:10:11.229Z,102058.56
2022-08-30T19:12:43.187Z,102055.75
2022-08-30T19:15:20.053Z,102067.03
2022-08-30T19:17:53.732Z,102072.94
2022-08-30T19:20:21.673Z,102067.31
2022-08-30T19:23:19.616Z,102078.59
2022-08-30T19:25:53.414Z,102077.75
2022-08-30T19:28:24.363Z,102074.94
2022-08-30T19:31:01.848Z,102074.09
2022-08-30T19:33:31.095Z,102086.22
2022-08-30T19:35:58.912Z,102082.00
2022-08-30T19:38:28.506Z,102095.00
2022-08-30T19:41:02.957Z,102098.09
2022-08-30T19:43:35.771Z,102095.28
2022-08-30T19:46:05.324Z,102103.72
2022-08-30T19:48:33.234Z,102101.75
2022-08-30T19:51:06.914Z,102107.41
2022-08-30T19:53:42.399Z,102101.69
2022-08-30T19:56:09.722Z,102113.00
2022-08-30T19:58:39.115Z,102105.41
2022-08-30T20:01:10.651Z,102111.34
2022-08-30T20:03:44.667Z,102116.16
2022-08-30T20:06:15.997Z,102125.44
2022-08-30T20:08:50.710Z,102120.41
2022-08-30T20:11:24.170Z,102126.06
2022-08-30T20:13:50.989Z,102123.22
2022-08-30T20:16:17.823Z,102123.22
2022-08-30T20:18:53.614Z,102135.03
2022-08-30T20:21:23.202Z,102126.34
2022-08-30T20:23:55.521Z,102126.34
2022-08-30T20:24:31.778Z,102058.28
2022-08-30T20:26:22.629Z,102137.88
2022-08-30T20:29:01.004Z,102131.38
2022-08-30T20:31:29.341Z,102131.69
2022-08-30T20:33:56.614Z,102129.97
2022-08-30T20:36:26.482Z,102127.75
2022-08-30T20:38:53.358Z,102120.41
2022-08-30T20:41:25.335Z,102131.69
2022-08-30T20:43:58.466Z,102136.19
2022-08-30T20:46:34.465Z,102137.91
2022-08-30T20:49:05.103Z,102137.38
2022-08-30T20:51:31.780Z,102151.72
2022-08-30T20:54:01.809Z,102152.31
2022-08-30T20:56:39.179Z,102141.34
2022-08-30T20:59:08.210Z,102146.97
2022-08-30T21:01:36.449Z,102151.78
2022-08-30T21:04:05.893Z,102156.56
2022-08-30T21:06:38.675Z,102152.91
2022-08-30T21:09:21.604Z,102157.72
2022-08-30T21:12:01.266Z,102158.81
2022-08-30T21:14:36.810Z,102154.91
2022-08-30T21:17:04.112Z,102164.50
2022-08-30T21:19:30.768Z,102158.81
2022-08-30T21:22:10.109Z,102160.22
2022-08-30T21:24:50.829Z,102150.34
2022-08-30T21:27:19.378Z,102153.47
2022-08-30T21:29:48.625Z,102154.06
2022-08-30T21:32:15.475Z,102155.72
2022-08-30T21:35:01.517Z,102155.19
2022-08-30T21:37:40.323Z,102153.78
2022-08-30T21:40:08.345Z,102159.44
2022-08-30T21:42:40.286Z,102155.47
2022-08-30T21:45:07.835Z,102155.44
2022-08-30T21:47:38.320Z,102153.75
2022-08-30T21:50:21.480Z,102156.59
2022-08-30T21:52:55.071Z,102154.09
2022-08-30T21:55:24.050Z,102164.25
2022-08-30T21:57:50.950Z,102165.66
2022-08-30T22:00:21.019Z,102164.81
2022-08-30T22:02:54.022Z,102167.13
2022-08-30T22:05:25.025Z,102167.63
2022-08-30T22:07:54.713Z,102171.59
2022-08-30T22:10:31.134Z,102179.16
2022-08-30T22:12:59.174Z,102174.69
2022-08-30T22:15:27.116Z,102173.00
2022-08-30T22:17:55.498Z,102180.00
2022-08-30T22:20:24.449Z,102177.50
2022-08-30T22:22:55.254Z,102185.13
2022-08-30T22:25:22.750Z,102184.56
2022-08-30T22:27:53.271Z,102185.41
2022-08-30T22:30:23.170Z,102188.50
2022-08-30T22:32:50.465Z,102191.94
2022-08-30T22:35:19.831Z,102189.66
2022-08-30T22:37:53.342Z,102194.47
2022-08-30T22:40:21.210Z,102193.34
2022-08-30T22:42:51.857Z,102195.31
2022-08-30T22:45:19.170Z,102194.47
2022-08-30T22:47:46.142Z,102193.91
2022-08-30T22:50:18.335Z,102200.38
2022-08-30T22:52:53.921Z,102202.69
2022-08-30T22:55:20.879Z,102202.13
2022-08-30T22:57:47.828Z,102204.66
2022-08-30T23:00:16.033Z,102207.72
2022-08-30T23:02:45.298Z,102208.31
2022-08-30T23:05:13.521Z,102206.88
2022-08-30T23:07:42.274Z,102215.31
2022-08-30T23:10:09.471Z,102217.28
2022-08-30T23:12:39.247Z,102213.09
2022-08-30T23:15:13.171Z,102217.28
2022-08-30T23:17:52.159Z,102222.41
2022-08-30T23:20:21.990Z,102215.06
2022-08-30T23:22:58.191Z,102215.66
2022-08-30T23:25:58.002Z,102218.47
2022-08-30T23:28:43.057Z,102221.84
2022-08-30T23:31:30.711Z,102220.47
2022-08-30T23:34:23.599Z,102223.81
2022-08-30T23:37:09.819Z,102226.09
2022-08-30T23:39:56.970Z,102227.75
2022-08-30T23:42:50.032Z,102228.84
2022-08-30T23:45:36.657Z,102221.56
2022-08-30T23:48:23.561Z,102216.44
2022-08-30T23:51:09.013Z,102221.56
2022-08-30T23:53:54.072Z,102209.19
2022-08-30T23:56:48.900Z,102216.25
2022-08-30T23:59:37.527Z,102214.84
